createdAt,value
2023-02-15T08:51:35.646Z,-3.87
2023-02-15T08:53:07.407Z,-3.43
2023-02-15T08:54:39.106Z,-2.98
2023-02-15T08:56:11.581Z,-2.54
2023-02-15T08:57:46.481Z,-2.12
2023-02-15T08:59:21.041Z,-1.73
2023-02-15T09:00:52.986Z,-1.35
2023-02-15T09:02:24.778Z,-1.04
2023-02-15T09:04:02.329Z,-0.76
2023-02-15T09:05:34.221Z,-0.48
2023-02-15T09:07:05.937Z,-0.23
2023-02-15T09:08:38.158Z,0.01
2023-02-15T09:10:10.762Z,0.21
2023-02-15T09:11:45.396Z,0.41
2023-02-15T09:13:17.119Z,0.58
2023-02-15T09:14:48.811Z,0.74
2023-02-15T09:16:21.885Z,0.86
2023-02-15T09:17:54.177Z,0.99
2023-02-15T09:19:26.225Z,1.11
2023-02-15T09:20:58.054Z,1.20
2023-02-15T09:22:31.192Z,1.34
2023-02-15T09:24:05.762Z,1.41
2023-02-15T09:25:37.493Z,1.56
2023-02-15T09:27:09.181Z,1.62
2023-02-15T09:28:41.752Z,1.71
2023-02-15T09:30:14.009Z,1.79
2023-02-15T09:31:48.239Z,1.86
2023-02-15T09:33:19.979Z,1.98
2023-02-15T09:34:51.721Z,2.09
2023-02-15T09:36:25.837Z,2.16
2023-02-15T09:37:57.530Z,2.26
2023-02-15T09:39:29.249Z,2.36
2023-02-15T09:41:16.839Z,2.41
2023-02-15T09:43:06.578Z,2.48
2023-02-15T09:44:48.835Z,2.61
2023-02-15T09:46:46.711Z,2.67
2023-02-15T09:48:37.128Z,2.74
2023-02-15T09:50:29.973Z,2.80
2023-02-15T09:52:10.878Z,2.87
2023-02-15T09:53:54.365Z,2.96
2023-02-15T09:55:47.246Z,3.01
2023-02-15T09:57:34.178Z,3.14
2023-02-15T09:59:26.395Z,3.20
2023-02-15T10:01:23.266Z,3.25
2023-02-15T10:03:25.468Z,3.35
2023-02-15T10:05:16.341Z,3.42
2023-02-15T10:07:13.701Z,3.52
2023-02-15T10:09:00.391Z,3.61
2023-02-15T10:10:37.565Z,3.72
2023-02-15T10:12:25.257Z,3.80
2023-02-15T10:14:28.858Z,3.88
2023-02-15T10:16:21.233Z,3.95
2023-02-15T10:18:12.045Z,3.99
2023-02-15T10:19:58.831Z,4.10
2023-02-15T10:21:41.995Z,4.17
2023-02-15T10:23:22.517Z,4.28
2023-02-15T10:25:18.306Z,4.35
2023-02-15T10:26:50.871Z,4.44
2023-02-15T10:28:39.584Z,4.50
2023-02-15T10:30:16.850Z,4.63
2023-02-15T10:31:58.242Z,4.69
2023-02-15T10:33:39.172Z,4.70
2023-02-15T10:35:26.401Z,4.82
2023-02-15T10:37:21.504Z,4.91
2023-02-15T10:39:31.775Z,5.00
2023-02-15T10:41:14.888Z,5.16
2023-02-15T10:43:13.005Z,5.27
2023-02-15T10:45:05.258Z,5.33
2023-02-15T10:46:49.175Z,5.46
2023-02-15T10:48:44.603Z,5.71
2023-02-15T10:50:27.585Z,5.95
2023-02-15T10:52:08.155Z,6.06
2023-02-15T10:54:00.859Z,6.30
2023-02-15T10:55:38.814Z,6.54
2023-02-15T10:57:51.093Z,6.75
2023-02-15T11:00:03.121Z,6.94
2023-02-15T11:01:56.955Z,7.18
2023-02-15T11:03:41.884Z,7.34
2023-02-15T11:05:28.635Z,7.60
2023-02-15T11:07:06.285Z,7.77
2023-02-15T11:08:46.082Z,7.97
2023-02-15T11:10:35.084Z,8.02
2023-02-15T11:12:13.741Z,8.14
2023-02-15T11:13:51.257Z,8.27
2023-02-15T11:15:35.556Z,8.34
2023-02-15T11:17:12.450Z,8.48
2023-02-15T11:19:16.681Z,8.47
2023-02-15T11:21:02.741Z,8.62
2023-02-15T11:22:35.480Z,8.75
2023-02-15T11:24:15.355Z,8.75
2023-02-15T11:25:56.081Z,8.88
2023-02-15T11:27:36.001Z,8.96
2023-02-15T11:29:17.201Z,9.01
2023-02-15T11:30:54.376Z,9.11
2023-02-15T11:32:30.107Z,9.13
2023-02-15T11:34:12.170Z,9.19
2023-02-15T11:35:56.934Z,9.23
2023-02-15T11:37:36.983Z,9.31
2023-02-15T11:39:15.342Z,9.37
2023-02-15T11:40:59.971Z,9.41
2023-02-15T11:42:34.128Z,9.36
2023-02-15T11:44:16.401Z,9.38
2023-02-15T11:45:48.221Z,9.46
2023-02-15T11:47:19.956Z,9.54
2023-02-15T11:48:51.813Z,9.60
2023-02-15T11:50:26.564Z,9.63
2023-02-15T11:52:00.943Z,9.66
2023-02-15T11:53:37.137Z,9.66
2023-02-15T11:55:15.538Z,9.65
2023-02-15T11:56:47.382Z,9.68
2023-02-15T11:58:41.319Z,9.61
2023-02-15T12:00:37.150Z,9.68
2023-02-15T12:02:21.832Z,9.76
2023-02-15T12:03:58.810Z,9.80
2023-02-15T12:05:31.400Z,9.81
2023-02-15T12:07:16.289Z,9.76
2023-02-15T12:08:56.362Z,9.85
2023-02-15T12:10:39.093Z,9.83
2023-02-15T12:12:29.293Z,9.90
2023-02-15T12:14:04.821Z,9.93
2023-02-15T12:15:37.589Z,10.08
2023-02-15T12:17:14.468Z,10.01
2023-02-15T12:18:48.907Z,9.95
2023-02-15T12:20:28.887Z,9.86
2023-02-15T12:22:03.319Z,9.86
2023-02-15T12:23:42.443Z,9.93
2023-02-15T12:25:30.461Z,9.87
2023-02-15T12:27:06.180Z,9.98
2023-02-15T12:28:43.077Z,9.94
2023-02-15T12:30:24.422Z,9.90
2023-02-15T12:31:56.829Z,9.77
2023-02-15T12:33:34.173Z,9.91
2023-02-15T12:35:15.101Z,9.91
2023-02-15T12:36:55.484Z,9.90
2023-02-15T12:38:29.626Z,9.96
2023-02-15T12:40:18.902Z,9.97
2023-02-15T12:41:57.836Z,9.91
2023-02-15T12:43:32.337Z,9.95
2023-02-15T12:45:21.562Z,9.91
2023-02-15T12:47:05.001Z,9.96
2023-02-15T12:48:40.696Z,10.02
2023-02-15T12:50:23.916Z,10.01
2023-02-15T12:52:01.625Z,10.05
2023-02-15T12:53:36.954Z,9.97
2023-02-15T12:55:18.496Z,9.96
2023-02-15T12:56:50.261Z,10.01
2023-02-15T12:58:27.089Z,10.03
2023-02-15T13:00:02.370Z,10.01
2023-02-15T13:01:34.682Z,10.04
2023-02-15T13:03:18.922Z,9.99
2023-02-15T13:04:51.506Z,10.06
2023-02-15T13:06:23.349Z,10.00
2023-02-15T13:07:58.844Z,9.98
2023-02-15T13:09:33.368Z,9.94
2023-02-15T13:11:11.465Z,9.86
2023-02-15T13:12:48.286Z,9.82
2023-02-15T13:14:31.585Z,9.78
2023-02-15T13:16:08.442Z,9.73
2023-02-15T13:17:40.471Z,9.63
2023-02-15T13:19:30.946Z,9.56
2023-02-15T13:21:12.190Z,9.47
2023-02-15T13:22:48.265Z,9.39
2023-02-15T13:24:33.939Z,9.32
2023-02-15T13:26:12.377Z,9.26
2023-02-15T13:27:46.135Z,9.25
2023-02-15T13:29:36.912Z,9.13
2023-02-15T13:31:19.545Z,9.09
2023-02-15T13:32:57.455Z,9.02
2023-02-15T13:34:39.974Z,8.92
2023-02-15T13:36:24.174Z,8.80
2023-02-15T13:38:07.658Z,8.77
2023-02-15T13:39:46.002Z,8.68
2023-02-15T13:41:27.560Z,8.72
2023-02-15T13:43:27.299Z,8.63
2023-02-15T13:45:24.538Z,8.62
2023-02-15T13:47:20.444Z,8.56
2023-02-15T13:49:17.766Z,8.46
2023-02-15T13:51:07.925Z,8.44
2023-02-15T13:53:12.368Z,8.43
2023-02-15T13:54:53.202Z,8.43
2023-02-15T13:56:40.132Z,8.44
2023-02-15T13:58:45.028Z,8.44
2023-02-15T14:00:26.390Z,8.45
2023-02-15T14:02:23.153Z,8.44
2023-02-15T14:04:09.737Z,8.45
2023-02-15T14:06:29.649Z,8.47
2023-02-15T14:08:30.951Z,8.40
2023-02-15T14:10:27.325Z,8.50
2023-02-15T14:12:17.558Z,8.50
2023-02-15T14:14:01.175Z,8.57
2023-02-15T14:15:48.307Z,8.66
2023-02-15T14:17:33.766Z,8.72
2023-02-15T14:19:20.059Z,8.70
2023-02-15T14:21:04.798Z,8.74
2023-02-15T14:22:42.713Z,8.80
2023-02-15T14:24:33.474Z,8.90
2023-02-15T14:26:25.917Z,8.90
2023-02-15T14:28:10.007Z,8.94
2023-02-15T14:29:51.965Z,8.98
2023-02-15T14:31:34.687Z,8.93
2023-02-15T14:33:16.572Z,8.95
2023-02-15T14:34:57.982Z,9.02
2023-02-15T14:36:31.363Z,8.99
2023-02-15T14:38:27.346Z,9.03
2023-02-15T14:40:25.399Z,9.05
2023-02-15T14:42:08.105Z,9.05
2023-02-15T14:43:45.996Z,9.06
2023-02-15T14:45:34.190Z,9.07
2023-02-15T14:47:36.959Z,8.97
2023-02-15T14:49:23.398Z,8.98
2023-02-15T14:50:55.164Z,9.06
2023-02-15T14:52:26.962Z,8.96
2023-02-15T14:53:58.726Z,8.96
2023-02-15T14:55:37.680Z,8.91
2023-02-15T14:57:09.514Z,8.94
2023-02-15T14:58:57.378Z,8.84
2023-02-15T15:00:39.176Z,8.87
2023-02-15T15:02:16.601Z,8.83
2023-02-15T15:03:54.441Z,8.81
2023-02-15T15:05:47.281Z,8.71
2023-02-15T15:07:23.341Z,8.72
2023-02-15T15:09:28.251Z,8.65
2023-02-15T15:11:42.038Z,8.61
2023-02-15T15:13:32.931Z,8.61
2023-02-15T15:15:06.360Z,8.63
2023-02-15T15:16:38.259Z,8.49
2023-02-15T15:18:11.610Z,8.43
2023-02-15T15:19:51.975Z,8.37
2023-02-15T15:21:49.285Z,8.25
2023-02-15T15:23:21.003Z,8.28
2023-02-15T15:24:55.083Z,8.28
2023-02-15T15:26:30.122Z,8.20
2023-02-15T15:28:02.026Z,8.19
2023-02-15T15:29:41.124Z,8.00
2023-02-15T15:31:25.111Z,7.95
2023-02-15T15:32:59.592Z,7.91
2023-02-15T15:34:55.139Z,7.78
2023-02-15T15:36:36.007Z,7.70
2023-02-15T15:39:01.405Z,7.57
2023-02-15T15:41:02.155Z,7.41
2023-02-15T15:42:51.542Z,7.36
2023-02-15T15:44:50.997Z,7.19
2023-02-15T15:46:25.719Z,7.01
2023-02-15T15:48:27.782Z,6.84
2023-02-15T15:50:00.620Z,6.70
2023-02-15T15:51:34.294Z,6.60
2023-02-15T15:53:07.339Z,6.38
2023-02-15T15:54:41.855Z,6.23
2023-02-15T15:56:20.149Z,6.08
2023-02-15T15:57:56.609Z,5.98
2023-02-15T15:59:33.536Z,5.81
2023-02-15T16:01:09.756Z,5.70
2023-02-15T16:02:52.292Z,5.42
2023-02-15T16:04:31.123Z,5.32
2023-02-15T16:06:03.391Z,5.22
2023-02-15T16:07:35.475Z,5.16
2023-02-15T16:09:19.368Z,5.04
2023-02-15T16:10:51.119Z,4.96
2023-02-15T16:12:23.954Z,4.84
2023-02-15T16:13:56.680Z,4.72
2023-02-15T16:15:45.556Z,4.59
2023-02-15T16:17:32.840Z,4.44
2023-02-15T16:19:04.638Z,4.31
2023-02-15T16:20:38.014Z,4.23
2023-02-15T16:22:16.912Z,4.10
2023-02-15T16:24:21.583Z,4.04
2023-02-15T16:26:07.043Z,3.94
2023-02-15T16:27:44.703Z,3.85
2023-02-15T16:29:18.841Z,3.69
2023-02-15T16:31:17.063Z,3.56
2023-02-15T16:32:49.499Z,3.54
2023-02-15T16:34:21.274Z,3.49
2023-02-15T16:35:59.124Z,3.31
2023-02-15T16:37:35.420Z,3.28
2023-02-15T16:39:17.975Z,3.23
2023-02-15T16:40:56.637Z,3.16
2023-02-15T16:42:28.453Z,3.08
2023-02-15T16:44:17.335Z,2.96
2023-02-15T16:45:49.416Z,2.95
2023-02-15T16:47:27.338Z,2.87
2023-02-15T16:49:03.259Z,2.82
2023-02-15T16:50:38.258Z,2.73
2023-02-15T16:52:16.887Z,2.68
2023-02-15T16:53:49.763Z,2.65
2023-02-15T16:55:24.072Z,2.60
2023-02-15T16:56:58.878Z,2.53
2023-02-15T16:58:46.882Z,2.42
2023-02-15T17:00:26.043Z,2.34
2023-02-15T17:01:58.512Z,2.27
2023-02-15T17:03:30.647Z,2.27
2023-02-15T17:05:11.669Z,2.19
2023-02-15T17:06:59.167Z,2.19
2023-02-15T17:08:34.193Z,2.22
2023-02-15T17:10:27.336Z,2.08
2023-02-15T17:12:00.861Z,2.11
2023-02-15T17:13:32.888Z,2.04
2023-02-15T17:15:04.765Z,2.01
2023-02-15T17:16:38.238Z,1.92
2023-02-15T17:18:19.438Z,1.83
2023-02-15T17:19:54.482Z,1.79
2023-02-15T17:21:32.817Z,1.78
2023-02-15T17:23:05.224Z,1.72
2023-02-15T17:24:43.072Z,1.68
2023-02-15T17:26:29.879Z,1.65
2023-02-15T17:28:02.414Z,1.61
2023-02-15T17:29:38.647Z,1.59
2023-02-15T17:31:10.633Z,1.52
2023-02-15T17:32:55.254Z,1.47
2023-02-15T17:35:00.219Z,1.41
2023-02-15T17:36:32.698Z,1.43
2023-02-15T17:38:24.710Z,1.36
2023-02-15T17:39:58.958Z,1.34
2023-02-15T17:41:38.326Z,1.29
2023-02-15T17:43:10.309Z,1.24
2023-02-15T17:44:42.032Z,1.20
2023-02-15T17:46:14.376Z,1.20
2023-02-15T17:47:49.343Z,1.16
2023-02-15T17:49:27.951Z,1.15
2023-02-15T17:51:02.786Z,1.08
2023-02-15T17:52:37.661Z,1.06
2023-02-15T17:54:29.156Z,1.02
2023-02-15T17:56:10.539Z,1.00
2023-02-15T17:57:42.662Z,0.95
2023-02-15T17:59:15.322Z,0.96
2023-02-15T18:01:10.382Z,0.94
2023-02-15T18:03:01.864Z,0.89
2023-02-15T18:04:54.948Z,0.85
2023-02-15T18:06:45.707Z,0.83
2023-02-15T18:08:45.481Z,0.76
2023-02-15T18:10:38.119Z,0.75
2023-02-15T18:12:23.814Z,0.67
2023-02-15T18:14:01.363Z,0.61
2023-02-15T18:15:33.235Z,0.60
2023-02-15T18:17:05.842Z,0.57
2023-02-15T18:18:39.135Z,0.54
2023-02-15T18:20:36.920Z,0.48
2023-02-15T18:22:13.065Z,0.54
2023-02-15T18:23:45.171Z,0.58
2023-02-15T18:25:20.153Z,0.51
2023-02-15T18:26:53.803Z,0.49
2023-02-15T18:28:28.973Z,0.50
2023-02-15T18:30:01.344Z,0.50
2023-02-15T18:31:33.234Z,0.41
2023-02-15T18:33:05.423Z,0.46
2023-02-15T18:34:42.179Z,0.49
2023-02-15T18:36:20.184Z,0.46
2023-02-15T18:37:53.785Z,0.40
2023-02-15T18:39:31.616Z,0.43
2023-02-15T18:41:04.113Z,0.36
2023-02-15T18:42:36.765Z,0.33
2023-02-15T18:44:12.283Z,0.35
2023-02-15T18:45:44.351Z,0.37
2023-02-15T18:47:16.431Z,0.35
2023-02-15T18:48:48.461Z,0.31
2023-02-15T18:50:21.953Z,0.36
2023-02-15T18:51:53.985Z,0.34
2023-02-15T18:53:26.040Z,0.30
2023-02-15T18:55:01.679Z,0.33
2023-02-15T18:56:33.834Z,0.26
2023-02-15T18:58:05.774Z,0.29
2023-02-15T18:59:38.140Z,0.26
2023-02-15T19:01:21.126Z,0.24
2023-02-15T19:02:54.062Z,0.25
2023-02-15T19:04:26.147Z,0.25
2023-02-15T19:05:58.193Z,0.24
2023-02-15T19:07:32.608Z,0.19
2023-02-15T19:09:05.756Z,0.19
2023-02-15T19:10:38.075Z,0.22
2023-02-15T19:12:13.363Z,0.13
2023-02-15T19:13:48.873Z,0.19
2023-02-15T19:15:23.173Z,0.19
2023-02-15T19:16:56.663Z,0.20
2023-02-15T19:18:28.380Z,0.14
2023-02-15T19:20:00.401Z,0.13
2023-02-15T19:21:32.826Z,0.11
2023-02-15T19:23:07.330Z,0.09
2023-02-15T19:24:42.069Z,0.10
2023-02-15T19:26:13.808Z,0.07
2023-02-15T19:27:46.857Z,0.09
2023-02-15T19:29:26.174Z,0.08
2023-02-15T19:30:58.032Z,0.08
2023-02-15T19:32:31.268Z,0.07
2023-02-15T19:34:13.096Z,0.04
2023-02-15T19:35:47.814Z,0.00
2023-02-15T19:37:33.527Z,0.01
2023-02-15T19:39:05.571Z,-0.05
2023-02-15T19:40:37.347Z,-0.09
2023-02-15T19:42:15.319Z,-0.08
2023-02-15T19:43:53.406Z,-0.14
2023-02-15T19:45:27.769Z,-0.12
2023-02-15T19:46:59.487Z,-0.12
2023-02-15T19:48:31.183Z,-0.11
2023-02-15T19:50:04.050Z,-0.14
2023-02-15T19:51:36.179Z,-0.14
2023-02-15T19:53:20.493Z,-0.16
2023-02-15T19:54:54.860Z,-0.17
2023-02-15T19:56:27.872Z,-0.15
2023-02-15T19:58:01.913Z,-0.16
2023-02-15T19:59:36.541Z,-0.16
2023-02-15T20:01:09.316Z,-0.16
2023-02-15T20:02:41.319Z,-0.22
2023-02-15T20:04:14.130Z,-0.21
2023-02-15T20:05:47.097Z,-0.21
2023-02-15T20:07:28.571Z,-0.25
2023-02-15T20:09:00.517Z,-0.27
2023-02-15T20:10:32.526Z,-0.26
2023-02-15T20:12:04.509Z,-0.24
2023-02-15T20:13:36.489Z,-0.24
2023-02-15T20:15:23.195Z,-0.27
2023-02-15T20:16:54.921Z,-0.22
2023-02-15T20:18:26.815Z,-0.22
2023-02-15T20:19:58.522Z,-0.28
2023-02-15T20:21:30.382Z,-0.20
2023-02-15T20:23:02.253Z,-0.18
2023-02-15T20:24:33.988Z,-0.19
2023-02-15T20:26:18.533Z,-0.26
2023-02-15T20:27:50.684Z,-0.24
2023-02-15T20:29:22.626Z,-0.25
2023-02-15T20:30:54.724Z,-0.24
2023-02-15T20:32:27.005Z,-0.21
2023-02-15T20:33:59.042Z,-0.19
2023-02-15T20:35:30.921Z,-0.21
2023-02-15T20:37:03.578Z,-0.20
2023-02-15T20:38:35.576Z,-0.23
2023-02-15T20:40:16.037Z,-0.27
2023-02-15T20:41:48.066Z,-0.24
2023-02-15T20:43:19.960Z,-0.27
2023-02-15T20:44:51.639Z,-0.27
2023-02-15T20:46:23.433Z,-0.33
2023-02-15T20:47:55.472Z,-0.33
2023-02-15T20:49:28.254Z,-0.35
2023-02-15T20:51:00.332Z,-0.37
2023-02-15T20:52:32.191Z,-0.31
2023-02-15T20:54:12.904Z,-0.35
2023-02-15T20:55:44.714Z,-0.34
2023-02-15T20:57:16.962Z,-0.36
2023-02-15T20:58:48.955Z,-0.38
2023-02-15T21:00:27.325Z,-0.31
2023-02-15T21:02:11.515Z,-0.29
2023-02-15T21:03:43.403Z,-0.24
2023-02-15T21:05:25.990Z,-0.30
2023-02-15T21:06:57.851Z,-0.28
2023-02-15T21:08:30.165Z,-0.28
2023-02-15T21:10:01.962Z,-0.27
2023-02-15T21:11:33.786Z,-0.32
2023-02-15T21:13:05.901Z,-0.33
2023-02-15T21:14:37.944Z,-0.31
2023-02-15T21:16:10.044Z,-0.29
2023-02-15T21:17:41.843Z,-0.32
2023-02-15T21:19:16.168Z,-0.31
2023-02-15T21:20:50.060Z,-0.35
2023-02-15T21:22:22.046Z,-0.35
2023-02-15T21:23:53.940Z,-0.37
2023-02-15T21:25:32.880Z,-0.35
2023-02-15T21:27:07.099Z,-0.32
2023-02-15T21:28:40.399Z,-0.31
2023-02-15T21:30:17.530Z,-0.34
2023-02-15T21:31:49.921Z,-0.35
2023-02-15T21:33:21.717Z,-0.40
2023-02-15T21:34:53.613Z,-0.40
2023-02-15T21:36:25.607Z,-0.45
2023-02-15T21:37:57.383Z,-0.40
2023-02-15T21:39:32.409Z,-0.41
2023-02-15T21:41:24.260Z,-0.41
2023-02-15T21:43:14.997Z,-0.40
2023-02-15T21:45:05.425Z,-0.45
2023-02-15T21:46:56.433Z,-0.39
2023-02-15T21:48:28.574Z,-0.43
2023-02-15T21:50:20.262Z,-0.42
2023-02-15T21:52:10.857Z,-0.44
2023-02-15T21:53:46.345Z,-0.48
2023-02-15T21:55:18.389Z,-0.46
2023-02-15T21:56:54.233Z,-0.43
2023-02-15T21:58:28.545Z,-0.45
2023-02-15T22:00:00.263Z,-0.44
2023-02-15T22:01:32.449Z,-0.45
2023-02-15T22:03:05.472Z,-0.49
2023-02-15T22:04:37.204Z,-0.51
2023-02-15T22:06:12.540Z,-0.49
2023-02-15T22:07:44.747Z,-0.50
2023-02-15T22:09:19.325Z,-0.50
2023-02-15T22:10:51.240Z,-0.50
2023-02-15T22:12:22.998Z,-0.47
2023-02-15T22:13:54.734Z,-0.50
2023-02-15T22:15:36.502Z,-0.46
2023-02-15T22:17:20.586Z,-0.50
2023-02-15T22:18:52.279Z,-0.47
2023-02-15T22:20:24.770Z,-0.49
2023-02-15T22:21:56.568Z,-0.50
2023-02-15T22:23:28.281Z,-0.48
2023-02-15T22:25:00.005Z,-0.48
2023-02-15T22:26:31.722Z,-0.47
2023-02-15T22:28:03.874Z,-0.50
2023-02-15T22:29:35.963Z,-0.53
2023-02-15T22:31:14.368Z,-0.56
2023-02-15T22:32:46.199Z,-0.49
2023-02-15T22:34:28.491Z,-0.50
2023-02-15T22:36:01.017Z,-0.49
2023-02-15T22:37:33.247Z,-0.47
2023-02-15T22:39:04.966Z,-0.50
2023-02-15T22:40:36.742Z,-0.52
2023-02-15T22:42:27.472Z,-0.56
2023-02-15T22:44:00.178Z,-0.51
2023-02-15T22:45:33.142Z,-0.56
2023-02-15T22:47:05.521Z,-0.59
2023-02-15T22:48:37.282Z,-0.58
2023-02-15T22:50:37.815Z,-0.64
2023-02-15T22:52:13.672Z,-0.60
2023-02-15T22:53:45.921Z,-0.65
2023-02-15T22:55:19.988Z,-0.68
2023-02-15T22:56:55.229Z,-0.69
2023-02-15T22:58:28.706Z,-0.72
2023-02-15T23:00:01.403Z,-0.62
2023-02-15T23:01:37.019Z,-0.69
2023-02-15T23:03:34.790Z,-0.74
2023-02-15T23:05:15.051Z,-0.70
2023-02-15T23:06:47.507Z,-0.70
2023-02-15T23:08:19.590Z,-0.66
2023-02-15T23:09:51.541Z,-0.65
2023-02-15T23:11:23.754Z,-0.64
2023-02-15T23:13:22.123Z,-0.68
2023-02-15T23:14:56.839Z,-0.68
2023-02-15T23:16:29.080Z,-0.64
2023-02-15T23:18:16.420Z,-0.65
2023-02-15T23:19:48.132Z,-0.65
2023-02-15T23:21:23.648Z,-0.65
2023-02-15T23:22:55.370Z,-0.65
2023-02-15T23:24:29.720Z,-0.66
2023-02-15T23:26:04.396Z,-0.62
2023-02-15T23:27:54.959Z,-0.61
2023-02-15T23:29:26.824Z,-0.64
2023-02-15T23:30:59.843Z,-0.64
2023-02-15T23:32:32.585Z,-0.71
2023-02-15T23:34:14.612Z,-0.70
2023-02-15T23:35:46.343Z,-0.74
2023-02-15T23:37:18.414Z,-0.68
2023-02-15T23:38:50.385Z,-0.68
2023-02-15T23:40:40.825Z,-0.67
2023-02-15T23:42:29.071Z,-0.67
2023-02-15T23:44:03.788Z,-0.62
2023-02-15T23:45:38.949Z,-0.69
2023-02-15T23:47:20.921Z,-0.73
2023-02-15T23:48:53.553Z,-0.69
2023-02-15T23:50:28.118Z,-0.69
2023-02-15T23:52:00.880Z,-0.71
2023-02-15T23:53:33.352Z,-0.67
2023-02-15T23:55:05.377Z,-0.65
2023-02-15T23:56:37.341Z,-0.64
2023-02-15T23:58:20.687Z,-0.66
2023-02-15T23:59:52.436Z,-0.67
